sensor_id;sensor_type;location;lat;lon;timestamp;noise_LAeq;noise_LA_min;noise_LA_max;noise_LA01;noise_LA95
41704;Laerm;861;48.808;9.006;2023-12-22T00:01:56;25.75;24.36;27.02;;
41704;Laerm;861;48.808;9.006;2023-12-22T00:04:25;25.76;24.25;27.02;;
41704;Laerm;861;48.808;9.006;2023-12-22T00:06:52;25.74;24.29;27.03;;
41704;Laerm;861;48.808;9.006;2023-12-22T00:09:18;25.74;24.50;26.96;;
41704;Laerm;861;48.808;9.006;2023-12-22T00:11:45;25.74;24.45;27.16;;
41704;Laerm;861;48.808;9.006;2023-12-22T00:14:12;25.73;24.33;27.05;;
41704;Laerm;861;48.808;9.006;2023-12-22T00:16:39;25.74;24.51;26.83;;
41704;Laerm;861;48.808;9.006;2023-12-22T00:19:05;25.74;24.49;26.80;;
41704;Laerm;861;48.808;9.006;2023-12-22T00:21:32;25.73;24.50;26.94;;
41704;Laerm;861;48.808;9.006;2023-12-22T00:23:59;25.74;24.36;26.79;;
41704;Laerm;861;48.808;9.006;2023-12-22T00:26:25;25.74;24.38;26.85;;
41704;Laerm;861;48.808;9.006;2023-12-22T00:28:52;25.75;24.54;27.07;;
41704;Laerm;861;48.808;9.006;2023-12-22T00:31:18;25.74;24.40;27.01;;
41704;Laerm;861;48.808;9.006;2023-12-22T00:33:45;26.74;24.50;56.09;;
41704;Laerm;861;48.808;9.006;2023-12-22T00:36:13;25.75;24.56;27.01;;
41704;Laerm;861;48.808;9.006;2023-12-22T00:38:39;25.76;24.51;34.48;;
41704;Laerm;861;48.808;9.006;2023-12-22T00:41:06;25.75;24.54;37.56;;
41704;Laerm;861;48.808;9.006;2023-12-22T00:43:32;25.74;24.58;27.20;;
41704;Laerm;861;48.808;9.006;2023-12-22T00:45:59;25.74;24.47;30.70;;
41704;Laerm;861;48.808;9.006;2023-12-22T00:48:26;25.73;24.43;26.95;;
41704;Laerm;861;48.808;9.006;2023-12-22T00:50:52;25.74;24.52;26.92;;
41704;Laerm;861;48.808;9.006;2023-12-22T00:53:19;25.73;24.19;26.90;;
41704;Laerm;861;48.808;9.006;2023-12-22T00:55:45;25.74;24.32;27.03;;
41704;Laerm;861;48.808;9.006;2023-12-22T00:58:12;25.74;24.47;26.84;;
41704;Laerm;861;48.808;9.006;2023-12-22T01:00:38;25.74;24.49;27.04;;
41704;Laerm;861;48.808;9.006;2023-12-22T01:03:05;25.73;24.48;26.88;;
41704;Laerm;861;48.808;9.006;2023-12-22T01:05:31;25.74;24.28;27.05;;
41704;Laerm;861;48.808;9.006;2023-12-22T01:07:58;25.75;24.37;26.95;;
41704;Laerm;861;48.808;9.006;2023-12-22T01:10:25;25.73;24.52;27.00;;
41704;Laerm;861;48.808;9.006;2023-12-22T01:12:51;25.74;24.49;27.32;;
41704;Laerm;861;48.808;9.006;2023-12-22T01:15:18;25.75;24.32;26.89;;
41704;Laerm;861;48.808;9.006;2023-12-22T01:17:44;25.75;24.50;27.14;;
41704;Laerm;861;48.808;9.006;2023-12-22T01:20:11;25.73;24.35;27.12;;
41704;Laerm;861;48.808;9.006;2023-12-22T01:22:38;25.75;24.57;27.09;;
41704;Laerm;861;48.808;9.006;2023-12-22T01:25:06;25.74;24.27;26.97;;
41704;Laerm;861;48.808;9.006;2023-12-22T01:27:32;25.74;24.52;26.83;;
41704;Laerm;861;48.808;9.006;2023-12-22T01:29:59;25.75;24.60;26.95;;
41704;Laerm;861;48.808;9.006;2023-12-22T01:32:25;25.73;24.52;27.06;;
41704;Laerm;861;48.808;9.006;2023-12-22T01:34:52;25.74;24.46;26.84;;
41704;Laerm;861;48.808;9.006;2023-12-22T01:37:19;25.75;24.67;27.01;;
41704;Laerm;861;48.808;9.006;2023-12-22T01:39:45;25.74;24.29;26.94;;
41704;Laerm;861;48.808;9.006;2023-12-22T01:42:12;25.75;24.61;26.99;;
41704;Laerm;861;48.808;9.006;2023-12-22T01:44:38;25.73;24.58;26.86;;
41704;Laerm;861;48.808;9.006;2023-12-22T01:47:05;25.75;24.50;27.05;;
41704;Laerm;861;48.808;9.006;2023-12-22T01:49:32;25.75;24.40;27.02;;
41704;Laerm;861;48.808;9.006;2023-12-22T01:51:59;25.77;24.55;27.01;;
41704;Laerm;861;48.808;9.006;2023-12-22T01:54:26;25.78;24.61;27.03;;
41704;Laerm;861;48.808;9.006;2023-12-22T01:56:54;25.80;24.59;27.23;;
41704;Laerm;861;48.808;9.006;2023-12-22T01:59:21;25.87;24.50;27.16;;
41704;Laerm;861;48.808;9.006;2023-12-22T02:01:48;26.12;24.76;27.29;;
41704;Laerm;861;48.808;9.006;2023-12-22T02:04:17;26.41;25.25;27.54;;
41704;Laerm;861;48.808;9.006;2023-12-22T02:06:44;26.59;25.32;27.91;;
41704;Laerm;861;48.808;9.006;2023-12-22T02:09:11;26.97;25.43;28.87;;
41704;Laerm;861;48.808;9.006;2023-12-22T02:11:39;28.96;27.13;30.75;;
41704;Laerm;861;48.808;9.006;2023-12-22T02:14:07;30.54;28.97;31.78;;
41704;Laerm;861;48.808;9.006;2023-12-22T02:17:25;30.77;29.41;31.93;;
41704;Laerm;861;48.808;9.006;2023-12-22T02:19:55;30.84;29.28;32.00;;
41704;Laerm;861;48.808;9.006;2023-12-22T02:22:22;30.83;29.42;32.12;;
41704;Laerm;861;48.808;9.006;2023-12-22T02:24:48;30.94;29.69;32.17;;
41704;Laerm;861;48.808;9.006;2023-12-22T02:30:39;31.15;29.95;32.17;;
41704;Laerm;861;48.808;9.006;2023-12-22T02:33:12;31.17;29.84;32.54;;
41704;Laerm;861;48.808;9.006;2023-12-22T02:35:47;31.26;30.13;32.41;;
41704;Laerm;861;48.808;9.006;2023-12-22T02:38:17;31.39;30.24;32.46;;
41704;Laerm;861;48.808;9.006;2023-12-22T02:40:46;31.50;30.39;32.84;;
41704;Laerm;861;48.808;9.006;2023-12-22T02:43:13;31.63;30.58;32.76;;
41704;Laerm;861;48.808;9.006;2023-12-22T02:45:40;31.79;30.31;34.24;;
41704;Laerm;861;48.808;9.006;2023-12-22T02:48:07;31.83;30.72;32.96;;
41704;Laerm;861;48.808;9.006;2023-12-22T02:50:34;31.94;30.74;34.12;;
41704;Laerm;861;48.808;9.006;2023-12-22T02:53:00;32.13;30.99;34.29;;
41704;Laerm;861;48.808;9.006;2023-12-22T02:55:27;32.75;31.33;34.09;;
41704;Laerm;861;48.808;9.006;2023-12-22T02:57:53;33.72;31.98;35.82;;
41704;Laerm;861;48.808;9.006;2023-12-22T03:00:20;36.10;33.83;46.71;;
41704;Laerm;861;48.808;9.006;2023-12-22T03:02:47;36.95;35.23;49.19;;
41704;Laerm;861;48.808;9.006;2023-12-22T03:05:13;36.81;35.38;43.97;;
41704;Laerm;861;48.808;9.006;2023-12-22T03:07:40;37.11;35.51;46.14;;
41704;Laerm;861;48.808;9.006;2023-12-22T03:10:07;36.93;35.44;45.24;;
41704;Laerm;861;48.808;9.006;2023-12-22T03:12:33;37.67;35.65;51.14;;
41704;Laerm;861;48.808;9.006;2023-12-22T03:15:00;37.60;35.53;50.00;;
41704;Laerm;861;48.808;9.006;2023-12-22T03:17:27;37.08;35.62;43.73;;
41704;Laerm;861;48.808;9.006;2023-12-22T03:19:53;37.02;35.62;46.86;;
41704;Laerm;861;48.808;9.006;2023-12-22T03:22:20;37.48;35.71;47.32;;
41704;Laerm;861;48.808;9.006;2023-12-22T03:24:46;37.64;35.43;54.78;;
41704;Laerm;861;48.808;9.006;2023-12-22T03:27:13;37.43;35.60;52.80;;
41704;Laerm;861;48.808;9.006;2023-12-22T03:29:44;37.20;35.68;47.01;;
41704;Laerm;861;48.808;9.006;2023-12-22T03:32:11;37.09;35.63;46.38;;
41704;Laerm;861;48.808;9.006;2023-12-22T03:34:37;37.06;35.67;43.65;;
41704;Laerm;861;48.808;9.006;2023-12-22T03:37:04;37.01;35.57;45.10;;
41704;Laerm;861;48.808;9.006;2023-12-22T03:39:30;36.98;35.66;46.46;;
41704;Laerm;861;48.808;9.006;2023-12-22T03:41:57;37.97;35.86;54.99;;
41704;Laerm;861;48.808;9.006;2023-12-22T03:44:23;37.81;35.69;51.84;;
41704;Laerm;861;48.808;9.006;2023-12-22T03:46:50;37.01;35.46;45.01;;
41704;Laerm;861;48.808;9.006;2023-12-22T03:49:17;36.91;35.57;45.23;;
41704;Laerm;861;48.808;9.006;2023-12-22T03:51:46;35.38;32.98;50.78;;
41704;Laerm;861;48.808;9.006;2023-12-22T03:54:12;34.17;31.12;61.11;;
41704;Laerm;861;48.808;9.006;2023-12-22T03:56:39;31.87;30.49;33.80;;
41704;Laerm;861;48.808;9.006;2023-12-22T03:59:05;31.52;30.22;33.13;;
41704;Laerm;861;48.808;9.006;2023-12-22T04:01:32;31.27;30.13;33.14;;
41704;Laerm;861;48.808;9.006;2023-12-22T04:03:59;31.09;29.85;32.26;;
41704;Laerm;861;48.808;9.006;2023-12-22T04:06:25;30.94;29.55;32.37;;
41704;Laerm;861;48.808;9.006;2023-12-22T04:08:53;30.89;29.53;33.66;;
41704;Laerm;861;48.808;9.006;2023-12-22T04:11:19;36.43;29.55;70.23;;
41704;Laerm;861;48.808;9.006;2023-12-22T04:13:46;32.35;29.70;63.10;;
41704;Laerm;861;48.808;9.006;2023-12-22T04:16:13;35.43;29.37;69.31;;
41704;Laerm;861;48.808;9.006;2023-12-22T04:18:39;32.84;29.56;64.10;;
41704;Laerm;861;48.808;9.006;2023-12-22T04:21:06;31.16;29.38;47.51;;
41704;Laerm;861;48.808;9.006;2023-12-22T04:23:32;30.90;29.46;43.49;;
41704;Laerm;861;48.808;9.006;2023-12-22T04:25:59;30.60;29.26;32.07;;
41704;Laerm;861;48.808;9.006;2023-12-22T04:28:26;30.64;29.45;35.43;;
41704;Laerm;861;48.808;9.006;2023-12-22T04:30:52;30.59;29.37;36.38;;
41704;Laerm;861;48.808;9.006;2023-12-22T04:33:19;30.58;29.21;35.52;;
41704;Laerm;861;48.808;9.006;2023-12-22T04:35:46;30.70;29.43;40.29;;
41704;Laerm;861;48.808;9.006;2023-12-22T04:38:12;30.63;29.23;39.90;;
41704;Laerm;861;48.808;9.006;2023-12-22T04:40:39;30.70;29.09;39.68;;
41704;Laerm;861;48.808;9.006;2023-12-22T04:43:06;30.49;29.04;33.94;;
41704;Laerm;861;48.808;9.006;2023-12-22T04:45:32;30.44;29.13;32.28;;
41704;Laerm;861;48.808;9.006;2023-12-22T04:47:59;30.44;29.23;33.41;;
41704;Laerm;861;48.808;9.006;2023-12-22T04:50:25;30.45;28.98;34.46;;
41704;Laerm;861;48.808;9.006;2023-12-22T04:52:52;30.43;28.94;33.55;;
41704;Laerm;861;48.808;9.006;2023-12-22T04:55:18;30.41;29.13;35.50;;
41704;Laerm;861;48.808;9.006;2023-12-22T04:57:45;30.44;29.24;39.59;;
41704;Laerm;861;48.808;9.006;2023-12-22T05:00:12;30.78;29.14;45.32;;
41704;Laerm;861;48.808;9.006;2023-12-22T05:02:39;30.45;29.21;38.64;;
41704;Laerm;861;48.808;9.006;2023-12-22T05:05:06;30.37;29.02;33.07;;
41704;Laerm;861;48.808;9.006;2023-12-22T05:07:34;30.46;29.15;37.55;;
41704;Laerm;861;48.808;9.006;2023-12-22T05:10:02;30.45;29.06;39.67;;
41704;Laerm;861;48.808;9.006;2023-12-22T05:12:29;30.41;29.15;35.52;;
41704;Laerm;861;48.808;9.006;2023-12-22T05:14:55;30.34;28.88;31.57;;
41704;Laerm;861;48.808;9.006;2023-12-22T05:17:22;30.69;29.26;38.32;;
41704;Laerm;861;48.808;9.006;2023-12-22T05:19:49;32.04;30.15;39.07;;
41704;Laerm;861;48.808;9.006;2023-12-22T05:22:16;34.25;31.37;39.60;;
41704;Laerm;861;48.808;9.006;2023-12-22T05:24:42;36.52;34.82;44.33;;
41704;Laerm;861;48.808;9.006;2023-12-22T05:27:09;36.41;35.16;39.95;;
41704;Laerm;861;48.808;9.006;2023-12-22T05:29:35;36.21;34.64;48.07;;
41704;Laerm;861;48.808;9.006;2023-12-22T05:32:02;35.81;34.07;47.30;;
41704;Laerm;861;48.808;9.006;2023-12-22T05:34:29;35.10;33.74;42.54;;
41704;Laerm;861;48.808;9.006;2023-12-22T05:36:55;35.19;34.04;39.05;;
41704;Laerm;861;48.808;9.006;2023-12-22T05:39:22;35.25;34.13;36.80;;
41704;Laerm;861;48.808;9.006;2023-12-22T05:41:48;35.91;34.61;43.29;;
41704;Laerm;861;48.808;9.006;2023-12-22T05:44:15;36.33;34.73;41.08;;
41704;Laerm;861;48.808;9.006;2023-12-22T05:46:41;36.85;35.35;40.68;;
41704;Laerm;861;48.808;9.006;2023-12-22T05:49:08;37.34;35.82;46.47;;
41704;Laerm;861;48.808;9.006;2023-12-22T05:51:41;37.32;35.90;45.52;;
41704;Laerm;861;48.808;9.006;2023-12-22T05:54:09;37.22;35.81;41.27;;
41704;Laerm;861;48.808;9.006;2023-12-22T05:56:37;37.36;35.82;45.89;;
41704;Laerm;861;48.808;9.006;2023-12-22T05:59:03;38.16;35.74;54.50;;
41704;Laerm;861;48.808;9.006;2023-12-22T06:01:30;38.36;36.00;52.35;;
41704;Laerm;861;48.808;9.006;2023-12-22T06:03:57;37.32;35.74;45.30;;
41704;Laerm;861;48.808;9.006;2023-12-22T06:06:26;37.44;36.10;46.61;;
41704;Laerm;861;48.808;9.006;2023-12-22T06:08:54;37.33;36.06;43.89;;
41704;Laerm;861;48.808;9.006;2023-12-22T06:11:20;37.75;35.93;53.72;;
41704;Laerm;861;48.808;9.006;2023-12-22T06:13:49;38.16;35.79;54.27;;
41704;Laerm;861;48.808;9.006;2023-12-22T06:16:16;38.34;35.82;57.71;;
41704;Laerm;861;48.808;9.006;2023-12-22T06:18:45;38.10;35.96;55.12;;
41704;Laerm;861;48.808;9.006;2023-12-22T06:21:12;37.92;35.96;54.07;;
41704;Laerm;861;48.808;9.006;2023-12-22T06:23:38;37.70;35.77;50.97;;
41704;Laerm;861;48.808;9.006;2023-12-22T06:26:12;37.53;36.00;51.24;;
41704;Laerm;861;48.808;9.006;2023-12-22T06:28:39;37.51;36.10;50.53;;
41704;Laerm;861;48.808;9.006;2023-12-22T06:31:20;38.30;35.98;51.31;;
41704;Laerm;861;48.808;9.006;2023-12-22T06:33:49;38.83;35.84;57.97;;
41704;Laerm;861;48.808;9.006;2023-12-22T06:36:26;37.89;36.01;50.73;;
41704;Laerm;861;48.808;9.006;2023-12-22T06:38:54;37.95;36.10;51.18;;
41704;Laerm;861;48.808;9.006;2023-12-22T06:41:30;37.49;36.13;46.99;;
41704;Laerm;861;48.808;9.006;2023-12-22T06:43:59;37.78;35.99;52.73;;
41704;Laerm;861;48.808;9.006;2023-12-22T06:46:27;37.91;35.96;51.68;;
41704;Laerm;861;48.808;9.006;2023-12-22T06:48:57;39.11;35.71;57.61;;
41704;Laerm;861;48.808;9.006;2023-12-22T06:51:31;37.46;36.07;48.73;;
41704;Laerm;861;48.808;9.006;2023-12-22T06:53:58;38.23;33.99;57.83;;
41704;Laerm;861;48.808;9.006;2023-12-22T06:56:31;37.12;34.20;49.74;;
41704;Laerm;861;48.808;9.006;2023-12-22T06:58:59;33.64;31.09;43.84;;
41704;Laerm;861;48.808;9.006;2023-12-22T07:01:35;37.12;34.88;51.40;;
41704;Laerm;861;48.808;9.006;2023-12-22T07:04:05;37.46;35.76;48.46;;
41704;Laerm;861;48.808;9.006;2023-12-22T07:06:35;37.01;35.64;42.18;;
41704;Laerm;861;48.808;9.006;2023-12-22T07:11:53;37.37;35.59;47.32;;
41704;Laerm;861;48.808;9.006;2023-12-22T07:14:20;37.08;35.85;40.95;;
41704;Laerm;861;48.808;9.006;2023-12-22T07:16:46;37.07;35.50;45.11;;
41704;Laerm;861;48.808;9.006;2023-12-22T07:19:13;36.92;35.60;39.74;;
41704;Laerm;861;48.808;9.006;2023-12-22T07:21:41;36.83;35.49;42.17;;
41704;Laerm;861;48.808;9.006;2023-12-22T07:24:08;36.94;35.41;45.02;;
41704;Laerm;861;48.808;9.006;2023-12-22T07:26:35;36.97;35.45;44.36;;
41704;Laerm;861;48.808;9.006;2023-12-22T07:29:02;37.09;35.71;42.61;;
41704;Laerm;861;48.808;9.006;2023-12-22T07:31:28;37.00;35.87;39.28;;
41704;Laerm;861;48.808;9.006;2023-12-22T07:33:55;37.03;35.68;43.29;;
41704;Laerm;861;48.808;9.006;2023-12-22T07:36:21;37.42;35.78;50.14;;
41704;Laerm;861;48.808;9.006;2023-12-22T07:38:48;37.14;35.76;45.85;;
41704;Laerm;861;48.808;9.006;2023-12-22T07:41:14;37.13;35.59;45.63;;
41704;Laerm;861;48.808;9.006;2023-12-22T07:43:41;36.93;35.58;41.06;;
41704;Laerm;861;48.808;9.006;2023-12-22T07:46:08;37.11;35.61;50.18;;
41704;Laerm;861;48.808;9.006;2023-12-22T07:48:36;36.77;35.48;41.03;;
41704;Laerm;861;48.808;9.006;2023-12-22T07:51:02;36.32;34.72;40.01;;
41704;Laerm;861;48.808;9.006;2023-12-22T07:53:30;34.82;33.16;37.26;;
41704;Laerm;861;48.808;9.006;2023-12-22T07:55:56;34.25;31.25;62.79;;
41704;Laerm;861;48.808;9.006;2023-12-22T07:58:26;31.77;30.30;34.90;;
41704;Laerm;861;48.808;9.006;2023-12-22T08:00:53;31.35;30.14;32.80;;
41704;Laerm;861;48.808;9.006;2023-12-22T08:03:20;31.19;29.84;32.26;;
41704;Laerm;861;48.808;9.006;2023-12-22T08:05:47;31.09;29.88;32.20;;
41704;Laerm;861;48.808;9.006;2023-12-22T08:08:13;31.02;29.46;32.14;;
41704;Laerm;861;48.808;9.006;2023-12-22T08:10:42;30.98;29.71;32.64;;
41704;Laerm;861;48.808;9.006;2023-12-22T08:13:08;30.91;29.75;32.07;;
41704;Laerm;861;48.808;9.006;2023-12-22T08:15:35;30.88;29.52;31.99;;
41704;Laerm;861;48.808;9.006;2023-12-22T08:18:02;30.86;29.54;32.82;;
41704;Laerm;861;48.808;9.006;2023-12-22T08:20:29;30.82;29.42;32.25;;
41704;Laerm;861;48.808;9.006;2023-12-22T08:22:55;30.80;29.39;32.18;;
41704;Laerm;861;48.808;9.006;2023-12-22T08:25:22;30.80;29.59;33.66;;
41704;Laerm;861;48.808;9.006;2023-12-22T08:27:48;30.76;29.57;32.03;;
41704;Laerm;861;48.808;9.006;2023-12-22T08:30:15;30.75;29.31;33.91;;
41704;Laerm;861;48.808;9.006;2023-12-22T08:32:42;30.72;29.42;34.16;;
41704;Laerm;861;48.808;9.006;2023-12-22T08:35:09;30.93;29.38;40.77;;
41704;Laerm;861;48.808;9.006;2023-12-22T08:37:35;31.07;29.35;42.49;;
41704;Laerm;861;48.808;9.006;2023-12-22T08:40:02;30.80;29.48;39.39;;
41704;Laerm;861;48.808;9.006;2023-12-22T08:42:30;31.36;29.20;58.41;;
41704;Laerm;861;48.808;9.006;2023-12-22T08:44:57;30.81;29.25;37.49;;
41704;Laerm;861;48.808;9.006;2023-12-22T08:47:24;30.81;29.48;40.82;;
41704;Laerm;861;48.808;9.006;2023-12-22T08:49:51;30.85;29.38;38.90;;
41704;Laerm;861;48.808;9.006;2023-12-22T08:52:18;30.80;29.21;42.26;;
41704;Laerm;861;48.808;9.006;2023-12-22T08:54:44;30.71;29.11;37.95;;
41704;Laerm;861;48.808;9.006;2023-12-22T08:57:11;30.65;29.15;36.32;;
41704;Laerm;861;48.808;9.006;2023-12-22T08:59:38;30.79;29.45;41.34;;
41704;Laerm;861;48.808;9.006;2023-12-22T09:02:05;30.62;29.34;35.40;;
41704;Laerm;861;48.808;9.006;2023-12-22T09:04:32;30.68;29.27;39.09;;
41704;Laerm;861;48.808;9.006;2023-12-22T09:06:59;30.68;29.26;41.32;;
41704;Laerm;861;48.808;9.006;2023-12-22T09:09:26;30.61;29.26;35.27;;
41704;Laerm;861;48.808;9.006;2023-12-22T09:11:53;30.73;29.14;39.09;;
41704;Laerm;861;48.808;9.006;2023-12-22T09:14:20;30.69;29.28;37.40;;
41704;Laerm;861;48.808;9.006;2023-12-22T09:16:47;30.63;29.33;37.89;;
41704;Laerm;861;48.808;9.006;2023-12-22T09:19:14;30.53;29.09;32.97;;
41704;Laerm;861;48.808;9.006;2023-12-22T09:21:40;30.56;29.11;36.13;;
41704;Laerm;861;48.808;9.006;2023-12-22T09:24:08;30.54;29.24;33.94;;
41704;Laerm;861;48.808;9.006;2023-12-22T09:26:34;30.52;28.72;33.28;;
41704;Laerm;861;48.808;9.006;2023-12-22T09:29:01;30.52;29.29;34.41;;
41704;Laerm;861;48.808;9.006;2023-12-22T09:31:27;30.51;29.31;32.14;;
41704;Laerm;861;48.808;9.006;2023-12-22T09:33:54;30.52;29.23;34.69;;
41704;Laerm;861;48.808;9.006;2023-12-22T09:36:20;31.30;29.34;34.23;;
41704;Laerm;861;48.808;9.006;2023-12-22T09:38:47;33.72;31.23;41.24;;
41704;Laerm;861;48.808;9.006;2023-12-22T09:41:14;36.67;34.40;44.98;;
41704;Laerm;861;48.808;9.006;2023-12-22T09:43:49;38.13;35.64;58.06;;
41704;Laerm;861;48.808;9.006;2023-12-22T09:46:21;37.85;35.97;52.99;;
41704;Laerm;861;48.808;9.006;2023-12-22T09:48:53;37.56;35.86;50.34;;
41704;Laerm;861;48.808;9.006;2023-12-22T09:51:20;37.22;35.87;41.49;;
41704;Laerm;861;48.808;9.006;2023-12-22T09:53:50;37.23;35.88;41.26;;
41704;Laerm;861;48.808;9.006;2023-12-22T09:56:19;37.74;35.97;49.36;;
41704;Laerm;861;48.808;9.006;2023-12-22T09:58:49;37.51;35.95;49.25;;
41704;Laerm;861;48.808;9.006;2023-12-22T10:01:21;37.49;35.93;47.00;;
41704;Laerm;861;48.808;9.006;2023-12-22T10:03:49;37.52;35.88;45.85;;
41704;Laerm;861;48.808;9.006;2023-12-22T10:06:16;37.31;35.95;40.61;;
41704;Laerm;861;48.808;9.006;2023-12-22T10:08:47;37.62;36.12;50.95;;
41704;Laerm;861;48.808;9.006;2023-12-22T10:11:18;37.52;35.92;47.79;;
41704;Laerm;861;48.808;9.006;2023-12-22T10:13:50;37.52;35.98;48.14;;
41704;Laerm;861;48.808;9.006;2023-12-22T10:16:19;37.81;35.87;51.69;;
41704;Laerm;861;48.808;9.006;2023-12-22T10:18:46;37.66;36.20;48.00;;
41704;Laerm;861;48.808;9.006;2023-12-22T10:21:13;37.68;36.14;54.21;;
41704;Laerm;861;48.808;9.006;2023-12-22T10:23:40;37.61;36.04;48.46;;
41704;Laerm;861;48.808;9.006;2023-12-22T10:26:07;38.24;36.02;53.66;;
41704;Laerm;861;48.808;9.006;2023-12-22T10:28:34;38.03;35.06;51.07;;
41704;Laerm;861;48.808;9.006;2023-12-22T10:31:02;34.14;31.38;46.01;;
41704;Laerm;861;48.808;9.006;2023-12-22T10:33:33;35.42;31.47;48.74;;
41704;Laerm;861;48.808;9.006;2023-12-22T10:36:01;32.99;30.40;62.84;;
41704;Laerm;861;48.808;9.006;2023-12-22T10:38:35;33.16;30.32;36.19;;
41704;Laerm;861;48.808;9.006;2023-12-22T10:41:07;36.44;34.51;43.67;;
41704;Laerm;861;48.808;9.006;2023-12-22T10:43:40;36.95;35.68;42.53;;
41704;Laerm;861;48.808;9.006;2023-12-22T10:46:08;37.15;35.36;51.97;;
41704;Laerm;861;48.808;9.006;2023-12-22T10:48:37;37.13;35.16;46.98;;
41704;Laerm;861;48.808;9.006;2023-12-22T10:51:10;36.44;32.46;47.29;;
41704;Laerm;861;48.808;9.006;2023-12-22T10:53:42;33.60;31.02;43.62;;
41704;Laerm;861;48.808;9.006;2023-12-22T10:56:10;33.44;30.58;64.44;;
41704;Laerm;861;48.808;9.006;2023-12-22T10:58:38;31.50;30.31;39.86;;
41704;Laerm;861;48.808;9.006;2023-12-22T11:01:09;31.23;30.07;33.88;;
41704;Laerm;861;48.808;9.006;2023-12-22T11:03:44;31.69;29.84;58.27;;
41704;Laerm;861;48.808;9.006;2023-12-22T11:06:15;31.93;29.60;59.06;;
41704;Laerm;861;48.808;9.006;2023-12-22T11:08:49;33.64;29.34;66.66;;
41704;Laerm;861;48.808;9.006;2023-12-22T11:11:34;33.20;29.37;66.42;;
41704;Laerm;861;48.808;9.006;2023-12-22T11:14:02;30.56;28.97;40.01;;
41704;Laerm;861;48.808;9.006;2023-12-22T11:16:32;30.42;29.31;35.19;;
41704;Laerm;861;48.808;9.006;2023-12-22T11:19:02;30.42;29.26;37.10;;
41704;Laerm;861;48.808;9.006;2023-12-22T11:21:30;30.36;29.01;36.96;;
41704;Laerm;861;48.808;9.006;2023-12-22T11:23:58;59.32;26.01;95.58;;
41704;Laerm;861;48.808;9.006;2023-12-22T11:26:26;27.11;25.50;41.43;;
41704;Laerm;861;48.808;9.006;2023-12-22T11:28:55;35.91;25.53;71.60;;
41704;Laerm;861;48.808;9.006;2023-12-22T11:31:25;27.12;25.58;48.08;;
41704;Laerm;861;48.808;9.006;2023-12-22T11:33:58;29.46;24.87;61.48;;
41704;Laerm;861;48.808;9.006;2023-12-22T11:36:26;26.08;24.79;31.93;;
41704;Laerm;861;48.808;9.006;2023-12-22T11:38:55;26.02;24.74;27.22;;
41704;Laerm;861;48.808;9.006;2023-12-22T11:41:30;26.01;24.61;27.13;;
41704;Laerm;861;48.808;9.006;2023-12-22T11:44:04;26.43;24.62;52.44;;
41704;Laerm;861;48.808;9.006;2023-12-22T11:46:32;26.00;24.65;27.15;;
41704;Laerm;861;48.808;9.006;2023-12-22T11:49:00;26.11;24.73;46.20;;
41704;Laerm;861;48.808;9.006;2023-12-22T11:51:33;26.00;24.68;27.14;;
41704;Laerm;861;48.808;9.006;2023-12-22T11:54:03;26.03;24.83;35.35;;
41704;Laerm;861;48.808;9.006;2023-12-22T11:56:30;26.66;24.86;54.33;;
41704;Laerm;861;48.808;9.006;2023-12-22T11:58:57;26.01;24.70;27.17;;
41704;Laerm;861;48.808;9.006;2023-12-22T12:01:27;26.06;24.66;42.47;;
41704;Laerm;861;48.808;9.006;2023-12-22T12:04:03;26.02;24.90;27.15;;
41704;Laerm;861;48.808;9.006;2023-12-22T12:06:35;26.04;24.88;38.11;;
41704;Laerm;861;48.808;9.006;2023-12-22T12:09:11;26.02;24.79;30.03;;
41704;Laerm;861;48.808;9.006;2023-12-22T12:14:37;27.21;24.59;57.66;;
41704;Laerm;861;48.808;9.006;2023-12-22T12:17:09;26.01;24.55;27.13;;
41704;Laerm;861;48.808;9.006;2023-12-22T12:19:40;26.00;24.89;27.21;;
41704;Laerm;861;48.808;9.006;2023-12-22T12:22:08;26.01;24.79;27.04;;
41704;Laerm;861;48.808;9.006;2023-12-22T12:24:38;26.01;24.71;27.30;;
41704;Laerm;861;48.808;9.006;2023-12-22T12:27:05;26.00;24.50;27.09;;
41704;Laerm;861;48.808;9.006;2023-12-22T12:29:36;25.99;24.71;27.21;;
41704;Laerm;861;48.808;9.006;2023-12-22T12:32:05;26.00;24.72;27.12;;
41704;Laerm;861;48.808;9.006;2023-12-22T12:34:35;26.00;24.72;27.28;;
41704;Laerm;861;48.808;9.006;2023-12-22T12:37:03;26.00;24.87;27.07;;
41704;Laerm;861;48.808;9.006;2023-12-22T12:39:34;26.00;24.61;27.10;;
41704;Laerm;861;48.808;9.006;2023-12-22T12:42:01;25.99;24.76;27.42;;
41704;Laerm;861;48.808;9.006;2023-12-22T12:44:30;26.02;24.64;38.25;;
41704;Laerm;861;48.808;9.006;2023-12-22T12:47:11;26.00;24.73;27.76;;
41704;Laerm;861;48.808;9.006;2023-12-22T12:49:37;26.00;24.54;27.19;;
41704;Laerm;861;48.808;9.006;2023-12-22T12:52:04;25.99;24.75;27.07;;
41704;Laerm;861;48.808;9.006;2023-12-22T12:54:33;26.00;24.74;30.53;;
41704;Laerm;861;48.808;9.006;2023-12-22T12:56:59;26.00;24.67;27.30;;
41704;Laerm;861;48.808;9.006;2023-12-22T12:59:26;26.10;24.73;45.62;;
41704;Laerm;861;48.808;9.006;2023-12-22T13:01:53;26.00;24.74;27.17;;
41704;Laerm;861;48.808;9.006;2023-12-22T13:04:19;26.01;24.75;27.23;;
41704;Laerm;861;48.808;9.006;2023-12-22T13:06:48;26.00;24.81;27.21;;
41704;Laerm;861;48.808;9.006;2023-12-22T13:09:18;26.01;24.51;30.91;;
41704;Laerm;861;48.808;9.006;2023-12-22T13:11:47;26.00;24.77;27.15;;
41704;Laerm;861;48.808;9.006;2023-12-22T13:14:24;26.00;24.75;27.14;;
41704;Laerm;861;48.808;9.006;2023-12-22T13:16:57;26.00;24.66;27.33;;
41704;Laerm;861;48.808;9.006;2023-12-22T13:19:25;26.00;24.60;27.17;;
41704;Laerm;861;48.808;9.006;2023-12-22T13:21:55;26.00;24.76;27.29;;
41704;Laerm;861;48.808;9.006;2023-12-22T13:24:23;26.01;24.84;27.35;;
41704;Laerm;861;48.808;9.006;2023-12-22T13:27:04;26.00;24.85;27.22;;
41704;Laerm;861;48.808;9.006;2023-12-22T13:29:46;26.01;24.58;31.12;;
41704;Laerm;861;48.808;9.006;2023-12-22T13:32:23;26.00;24.76;27.27;;
41704;Laerm;861;48.808;9.006;2023-12-22T13:34:54;26.00;24.81;33.03;;
41704;Laerm;861;48.808;9.006;2023-12-22T13:37:21;26.02;24.71;28.11;;
41704;Laerm;861;48.808;9.006;2023-12-22T13:39:51;26.00;24.81;27.07;;
41704;Laerm;861;48.808;9.006;2023-12-22T13:42:19;26.01;24.78;27.25;;
41704;Laerm;861;48.808;9.006;2023-12-22T13:44:49;26.01;24.61;27.23;;
41704;Laerm;861;48.808;9.006;2023-12-22T13:47:22;26.00;24.77;27.57;;
41704;Laerm;861;48.808;9.006;2023-12-22T13:49:49;26.01;24.83;27.15;;
41704;Laerm;861;48.808;9.006;2023-12-22T13:52:43;26.01;24.79;27.22;;
41704;Laerm;861;48.808;9.006;2023-12-22T13:55:17;26.01;24.83;27.10;;
41704;Laerm;861;48.808;9.006;2023-12-22T13:57:45;26.01;24.78;27.85;;
41704;Laerm;861;48.808;9.006;2023-12-22T14:02:49;26.02;24.78;27.24;;
41704;Laerm;861;48.808;9.006;2023-12-22T14:05:20;26.02;24.74;27.26;;
41704;Laerm;861;48.808;9.006;2023-12-22T14:07:48;26.01;24.67;27.24;;
41704;Laerm;861;48.808;9.006;2023-12-22T14:10:15;26.00;24.77;27.19;;
41704;Laerm;861;48.808;9.006;2023-12-22T14:12:42;26.01;24.70;27.40;;
41704;Laerm;861;48.808;9.006;2023-12-22T14:15:13;26.03;24.84;27.26;;
41704;Laerm;861;48.808;9.006;2023-12-22T14:17:40;26.03;24.66;27.24;;
41704;Laerm;861;48.808;9.006;2023-12-22T14:20:10;26.03;24.84;27.31;;
41704;Laerm;861;48.808;9.006;2023-12-22T14:22:39;26.03;24.76;27.35;;
41704;Laerm;861;48.808;9.006;2023-12-22T14:25:07;26.08;24.86;27.07;;
41704;Laerm;861;48.808;9.006;2023-12-22T14:27:34;26.41;25.06;27.67;;